KCTZ

Clinton-Sampson County Airport

Clinton, North Carolina, USA
METAR KCTZ 230255Z AUTO 18003KT 10SM SCT001 22/21 A3011 RMK AO2 T02230211
Observed Flight Rules
May-23 @ 02:55 UTC (16 minutes ago) Visual Flight Rules
Wind Visibility Clouds
180° at 3 knots 10 miles
  • Scattered at 100' AGL
Temperatures Readings
Current 22°C / 72°F
Dewpoint 21°C / 70°F
Humidity 94%
Altimeter 30.11" Hg
Pressure 1020 hPa
Elevation 45
METAR KCTZ 230255Z AUTO 18003KT 10SM SCT001 22/21 A3011 RMK AO2 T02230211
Observed Flight Rules
May-23 @ 02:55 UTC
(16 minutes ago)
VFR
Wind Visibility
180° at 3 knots 10 miles
Clouds
  • Scattered at 100' AGL
Temperature Dewpoint
22°C / 72°F 21°C / 70°F
Humidity Altimeter Pressure
94% 30.11" Hg 1020 hPa